Time;durP1;ratioP1;P1;durP2;ratioP2;P2;SDS_P1;SDS_P2;PMS_P1;PMS_P2;Temp;Humidity;BMP_temperature;BMP_pressure;BME280_temperature;BME280_humidity;BME280_pressure;Samples;Min_cycle;Max_cycle;Signal;HPM_P1;HPM_P2
2021/12/15 00:00:14;;;;;;;56.03;27.40;;;;;;;7.73;100.00;102724.22;2106765;28;20102;-70
2021/12/15 00:01:14;;;;;;;57.60;29.67;;;;;;;7.72;100.00;102725.09;2098223;28;20036;-68
2021/12/15 00:02:19;;;;;;;54.73;27.93;;;;;;;7.71;100.00;102725.97;2098310;28;20024;-69
2021/12/15 00:03:20;;;;;;;55.75;27.00;;;;;;;7.71;100.00;102718.19;2107270;28;20290;-68
2021/12/15 00:04:20;;;;;;;55.70;27.70;;;;;;;7.71;100.00;102717.31;2107229;28;20093;-69
2021/12/15 00:05:24;;;;;;;63.47;27.83;;;;;;;7.71;100.00;102719.91;2107246;28;20107;-70
2021/12/15 00:06:24;;;;;;;55.92;28.38;;;;;;;7.70;100.00;102715.59;2107253;28;20107;-69
2021/12/15 00:07:26;;;;;;;51.47;27.40;;;;;;;7.69;100.00;102712.09;2107127;28;20028;-68
2021/12/15 00:08:26;;;;;;;57.70;26.98;;;;;;;7.68;100.00;102710.38;2107290;28;20020;-69
2021/12/15 00:09:27;;;;;;;53.97;27.17;;;;;;;7.69;100.00;102711.22;2107162;28;20035;-68
2021/12/15 00:10:29;;;;;;;57.92;28.98;;;;;;;7.68;100.00;102707.78;2107266;28;20374;-68
2021/12/15 00:11:35;;;;;;;50.28;26.98;;;;;;;7.67;100.00;102706.03;2107154;28;20039;-70
2021/12/15 00:12:36;;;;;;;56.58;28.48;;;;;;;7.68;100.00;102707.78;2107142;28;20028;-68
2021/12/15 00:13:38;;;;;;;58.00;27.53;;;;;;;7.68;100.00;102710.38;2107149;28;20121;-68
2021/12/15 00:14:39;;;;;;;56.00;28.20;;;;;;;7.67;100.00;102708.63;2107169;28;20020;-69
2021/12/15 00:15:40;;;;;;;61.30;28.92;;;;;;;7.67;100.00;102708.63;2107205;28;20110;-69
2021/12/15 00:16:41;;;;;;;59.58;29.33;;;;;;;7.67;100.00;102708.63;2098113;28;20032;-68
2021/12/15 00:17:42;;;;;;;;;;;;;;;7.69;100.00;102711.22;2098724;28;20030;-68
2021/12/15 00:18:44;;;;;;;56.65;25.48;;;;;;;7.68;100.00;102710.38;2107223;28;19912;-68
2021/12/15 00:19:45;;;;;;;58.95;27.02;;;;;;;7.69;100.00;102701.72;2107133;28;20046;-68
2021/12/15 00:20:45;;;;;;;55.80;28.00;;;;;;;7.69;100.00;102695.63;2107182;28;20039;-70
2021/12/15 00:21:46;;;;;;;61.50;28.97;;;;;;;7.71;100.00;102704.31;2107017;28;20039;-70
2021/12/15 00:22:51;;;;;;;55.33;26.77;;;;;;;7.70;100.00;102700.84;2107148;28;20024;-70
2021/12/15 00:23:52;;;;;;;58.38;27.60;;;;;;;7.70;100.00;102702.59;2107114;28;20032;-67
2021/12/15 00:24:52;;;;;;;55.85;27.17;;;;;;;7.70;100.00;102710.38;2107129;28;20107;-67
2021/12/15 00:25:52;;;;;;;56.53;28.03;;;;;;;7.69;100.00;102706.91;2106963;28;20048;-69
2021/12/15 00:26:55;;;;;;;62.20;28.80;;;;;;;7.71;100.00;102704.31;2107074;28;20028;-69
2021/12/15 00:27:56;;;;;;;60.17;26.77;;;;;;;7.70;100.00;102703.44;2106987;28;20020;-67
2021/12/15 00:28:57;;;;;;;61.05;29.77;;;;;;;7.70;100.00;102702.59;2107042;28;20026;-68
2021/12/15 00:29:58;;;;;;;59.05;28.42;;;;;;;7.69;100.00;102712.09;2107027;28;20039;-69
2021/12/15 00:30:59;;;;;;;60.53;30.13;;;;;;;7.70;100.00;102708.63;2107008;28;20032;-71
2021/12/15 00:32:03;;;;;;;57.88;28.42;;;;;;;7.69;100.00;102704.31;2106997;28;20036;-69
2021/12/15 00:33:06;;;;;;;62.50;28.80;;;;;;;7.70;100.00;102700.84;2106975;28;20020;-69
2021/12/15 00:34:07;;;;;;;54.65;27.73;;;;;;;7.71;100.00;102704.31;2106954;28;20036;-67
2021/12/15 00:35:08;;;;;;;63.83;27.40;;;;;;;7.70;100.00;102703.44;2107032;28;20095;-68
2021/12/15 00:36:09;;;;;;;51.40;27.60;;;;;;;7.70;100.00;102708.63;2106981;28;20121;-67
2021/12/15 00:37:10;;;;;;;55.22;27.20;;;;;;;7.70;100.00;102708.63;2106766;28;20027;-68
2021/12/15 00:38:11;;;;;;;59.17;28.63;;;;;;;7.71;100.00;102706.91;2107003;28;20500;-68
2021/12/15 00:39:19;;;;;;;54.55;28.80;;;;;;;7.72;100.00;102706.03;2106923;28;20381;-68
2021/12/15 00:40:22;;;;;;;61.13;28.65;;;;;;;7.70;100.00;102695.63;2106222;28;20039;-68
2021/12/15 00:41:22;;;;;;;62.65;29.75;;;;;;;7.70;100.00;102700.84;2106379;28;20027;-68
2021/12/15 00:42:23;;;;;;;60.20;27.57;;;;;;;7.69;100.00;102704.31;2097914;28;20074;-68
2021/12/15 00:43:24;;;;;;;56.33;28.03;;;;;;;7.71;100.00;102699.13;2097976;28;20025;-68
2021/12/15 00:44:25;;;;;;;56.13;29.02;;;;;;;7.70;100.00;102694.78;2106905;28;20473;-68
2021/12/15 00:45:26;;;;;;;56.08;26.80;;;;;;;7.69;100.00;102699.13;2097837;28;20025;-68
2021/12/15 00:46:27;;;;;;;60.58;29.17;;;;;;;7.69;100.00;102698.25;2097911;28;20421;-69
2021/12/15 00:47:27;;;;;;;54.17;25.47;;;;;;;7.69;100.00;102699.13;2106832;28;20024;-69
2021/12/15 00:48:27;;;;;;;58.90;28.87;;;;;;;7.70;100.00;102695.63;2106924;28;20786;-69
2021/12/15 00:49:28;;;;;;;57.90;27.40;;;;;;;7.69;100.00;102701.72;2106939;28;20028;-68
2021/12/15 00:50:32;;;;;;;51.43;26.23;;;;;;;7.70;100.00;102708.63;2106880;28;20031;-68
2021/12/15 00:51:34;;;;;;;60.58;30.10;;;;;;;7.70;100.00;102700.84;2106687;28;20028;-69
2021/12/15 00:52:37;;;;;;;57.80;28.45;;;;;;;7.70;100.00;102703.44;2106893;28;20027;-69
2021/12/15 00:53:37;;;;;;;61.35;29.35;;;;;;;7.71;100.00;102694.78;2106187;28;20086;-69
2021/12/15 00:54:38;;;;;;;55.22;28.33;;;;;;;7.71;100.00;102699.13;2106319;28;20024;-69
2021/12/15 00:55:39;;;;;;;54.88;27.23;;;;;;;7.71;100.00;102700.00;2097685;28;20024;-68
2021/12/15 00:56:40;;;;;;;54.20;26.20;;;;;;;7.71;100.00;102697.41;2098026;28;20052;-69
2021/12/15 00:57:40;;;;;;;54.38;28.33;;;;;;;7.72;100.00;102703.44;2106946;28;20020;-68
2021/12/15 00:58:41;;;;;;;58.53;27.17;;;;;;;7.72;100.00;102698.25;2106707;28;20115;-70
2021/12/15 00:59:41;;;;;;;59.23;28.10;;;;;;;7.72;100.00;102685.25;2106750;28;20107;-69
2021/12/15 01:00:43;;;;;;;62.23;28.23;;;;;;;7.71;100.00;102702.59;2106771;28;20028;-69
2021/12/15 01:01:44;;;;;;;59.15;28.95;;;;;;;7.72;100.00;102704.31;2106747;28;20377;-69
2021/12/15 01:02:44;;;;;;;56.75;27.35;;;;;;;7.71;100.00;102692.19;2106793;28;20032;-71
2021/12/15 01:03:44;;;;;;;56.27;25.27;;;;;;;7.72;100.00;102691.31;2106857;28;20028;-68
2021/12/15 01:04:45;;;;;;;58.73;26.97;;;;;;;7.71;100.00;102689.59;2106758;28;20285;-67
2021/12/15 01:05:48;;;;;;;53.13;24.30;;;;;;;7.71;100.00;102692.19;2097761;28;20012;-67
2021/12/15 01:06:53;;;;;;;56.15;27.42;;;;;;;7.70;100.00;102695.63;2089796;28;20048;-68
2021/12/15 01:07:54;;;;;;;56.25;27.70;;;;;;;7.72;100.00;102700.84;2098310;28;20025;-68
2021/12/15 01:08:59;;;;;;;58.03;28.33;;;;;;;7.72;100.00;102695.63;2097750;28;20026;-68
2021/12/15 01:09:59;;;;;;;60.00;27.90;;;;;;;7.71;100.00;102707.78;2098360;28;20032;-68
2021/12/15 01:11:12;;;;;;;57.42;28.20;;;;;;;7.72;100.00;102708.63;2106654;28;20031;-68
2021/12/15 01:12:38;;;;;;;53.97;26.52;;;;;;;7.71;100.00;102710.38;2106734;28;20476;-67
2021/12/15 01:20:21;;;;;;;61.50;27.48;;;;;;;7.71;100.00;102705.19;2106913;28;20385;-68
2021/12/15 01:21:21;;;;;;;51.88;24.48;;;;;;;7.72;100.00;102706.91;2106607;28;20055;-68
2021/12/15 01:22:43;;;;;;;59.90;28.60;;;;;;;7.73;100.00;102710.34;2097591;28;20024;-68
2021/12/15 01:23:44;;;;;;;61.90;26.33;;;;;;;7.73;100.00;102713.84;2100817;28;20719;-69
2021/12/15 01:24:44;;;;;;;57.57;26.50;;;;;;;7.72;100.00;102716.44;2106645;28;20031;-69
2021/12/15 01:25:54;;;;;;;55.40;26.83;;;;;;;7.72;100.00;102712.13;2106501;28;20071;-69
2021/12/15 01:26:55;;;;;;;58.78;26.65;;;;;;;7.72;100.00;102714.72;2106626;28;20030;-68
2021/12/15 01:27:56;;;;;;;62.00;27.77;;;;;;;7.72;100.00;102712.13;2106551;28;20032;-68
2021/12/15 01:28:56;;;;;;;54.53;24.60;;;;;;;7.73;100.00;102715.56;2106710;28;20290;-69
2021/12/15 01:29:56;;;;;;;61.97;28.93;;;;;;;7.73;100.00;102710.34;2097646;28;20028;-68
2021/12/15 01:30:59;;;;;;;62.13;29.23;;;;;;;7.72;100.00;102722.50;2097642;28;20032;-68
2021/12/15 01:31:59;;;;;;;58.78;27.17;;;;;;;7.72;100.00;102717.31;2106577;28;20028;-68
2021/12/15 01:33:02;;;;;;;61.15;27.52;;;;;;;7.71;100.00;102715.59;2106621;28;20073;-67
2021/12/15 01:34:02;;;;;;;65.10;29.15;;;;;;;7.71;100.00;102707.78;2106551;28;20028;-69
2021/12/15 01:35:03;;;;;;;62.03;30.52;;;;;;;7.71;100.00;102710.38;2106488;28;20368;-70
2021/12/15 01:36:06;;;;;;;61.22;29.05;;;;;;;7.70;100.00;102713.84;2106606;28;20024;-68
2021/12/15 01:37:07;;;;;;;64.35;30.73;;;;;;;7.71;100.00;102713.00;2106593;28;20376;-68
2021/12/15 01:38:07;;;;;;;58.58;26.25;;;;;;;7.70;100.00;102713.84;2106540;28;20024;-67
2021/12/15 01:39:08;;;;;;;61.10;30.13;;;;;;;7.70;100.00;102713.84;2106635;28;20099;-70
2021/12/15 01:40:20;;;;;;;66.53;29.30;;;;;;;7.71;100.00;102715.59;2106512;28;20504;-68
2021/12/15 01:41:23;;;;;;;57.13;27.10;;;;;;;7.70;100.00;102703.44;2105857;28;20107;-70
2021/12/15 01:42:27;;;;;;;61.85;27.92;;;;;;;7.69;100.00;102703.44;2097448;28;20462;-68
2021/12/15 01:46:51;;;;;;;61.70;29.58;;;;;;;7.70;100.00;102706.03;2097980;28;20024;-69
2021/12/15 01:47:40;;;;;;;;;;;;;;;7.70;100.00;102715.59;2106834;28;20032;-67
2021/12/15 01:48:42;;;;;;;61.97;27.80;;;;;;;7.68;100.00;102705.19;2106590;28;19911;-69
2021/12/15 01:49:46;;;;;;;58.33;26.25;;;;;;;7.70;100.00;102712.97;2097528;28;20016;-69
2021/12/15 01:50:50;;;;;;;71.65;28.85;;;;;;;7.69;100.00;102717.31;2097601;28;20032;-68
2021/12/15 01:51:50;;;;;;;64.78;29.92;;;;;;;7.69;100.00;102719.91;2106512;28;20125;-69
2021/12/15 01:52:51;;;;;;;71.53;31.70;;;;;;;7.68;100.00;102715.59;2106503;28;20094;-68
2021/12/15 01:53:51;;;;;;;66.33;29.17;;;;;;;7.68;100.00;102712.09;2106656;28;20020;-68
2021/12/15 01:55:16;;;;;;;65.85;28.48;;;;;;;7.66;100.00;102712.09;2106514;28;20038;-68
2021/12/15 01:56:16;;;;;;;65.00;27.40;;;;;;;7.66;100.00;102712.09;2106520;28;20024;-68
2021/12/15 01:57:19;;;;;;;70.85;30.38;;;;;;;7.66;100.00;102714.69;2106569;28;20032;-68
2021/12/15 01:58:20;;;;;;;66.88;28.92;;;;;;;7.67;100.00;102713.81;2106609;28;20020;-68
2021/12/15 01:59:23;;;;;;;69.05;30.50;;;;;;;7.66;100.00;102717.28;2106373;28;20028;-68
2021/12/15 02:00:35;;;;;;;68.80;31.17;;;;;;;7.66;100.00;102711.25;2106451;28;20469;-68
2021/12/15 02:01:35;;;;;;;62.10;27.80;;;;;;;7.66;100.00;102717.28;2106414;28;20069;-69
2021/12/15 02:02:35;;;;;;;65.60;29.67;;;;;;;7.67;100.00;102713.81;2106390;28;20028;-68
2021/12/15 02:03:37;;;;;;;65.77;27.90;;;;;;;7.67;100.00;102718.19;2106429;28;20130;-68
2021/12/15 02:04:39;;;;;;;71.45;31.27;;;;;;;7.68;100.00;102715.59;2106518;28;20074;-69
2021/12/15 02:05:40;;;;;;;68.28;30.05;;;;;;;7.68;100.00;102720.78;2106404;28;20031;-68
2021/12/15 02:06:43;;;;;;;;;;;;;;;7.69;100.00;102722.50;2097887;28;20028;-68
2021/12/15 02:07:45;;;;;;;62.65;25.95;;;;;;;7.69;100.00;102722.50;2097640;28;19913;-66
2021/12/15 02:08:45;;;;;;;66.80;28.13;;;;;;;7.71;100.00;102719.91;2097380;28;20401;-68
2021/12/15 02:10:52;;;;;;;65.80;27.52;;;;;;;7.69;100.00;102732.91;2098360;28;20028;-67
2021/12/15 02:11:53;;;;;;;66.32;28.02;;;;;;;7.70;100.00;102728.56;2106400;28;20410;-68
2021/12/15 02:12:54;;;;;;;61.77;27.80;;;;;;;7.72;100.00;102735.50;2106490;28;20039;-67
2021/12/15 02:13:54;;;;;;;;;;;;;;;7.73;100.00;102728.56;2106734;28;20039;-67
2021/12/15 02:14:55;;;;;;;58.78;24.58;;;;;;;7.73;100.00;102729.44;2106475;28;19958;-67
2021/12/15 02:15:58;;;;;;;67.87;29.27;;;;;;;7.72;100.00;102730.31;2097405;28;20024;-67
2021/12/15 02:16:59;;;;;;;64.20;27.15;;;;;;;7.73;100.00;102725.94;2097800;28;20486;-68
2021/12/15 02:18:00;;;;;;;72.15;28.45;;;;;;;7.72;100.00;102727.72;2106467;28;20066;-68
2021/12/15 02:19:01;;;;;;;;;;;;;;;7.75;100.00;102728.56;2106839;28;20020;-68
2021/12/15 02:20:04;;;;;;;59.60;26.83;;;;;;;7.73;100.00;102739.81;2106428;28;20418;-68
2021/12/15 02:21:09;;;;;;;61.03;25.80;;;;;;;7.73;100.00;102733.75;2105734;28;20059;-69
2021/12/15 02:22:09;;;;;;;64.10;28.30;;;;;;;7.72;100.00;102729.44;2097337;28;20512;-68
2021/12/15 02:23:12;;;;;;;59.50;25.67;;;;;;;7.74;100.00;102735.50;2097410;28;20033;-69
2021/12/15 02:24:13;;;;;;;62.05;26.15;;;;;;;7.75;100.00;102736.34;2106407;28;20047;-68
2021/12/15 02:25:15;;;;;;;64.00;26.77;;;;;;;7.74;100.00;102735.50;2106426;28;20023;-69
2021/12/15 02:26:24;;;;;;;61.90;27.02;;;;;;;7.75;100.00;102742.44;2106441;28;20412;-67
2021/12/15 02:27:31;;;;;;;61.88;28.02;;;;;;;7.75;100.00;102738.94;2106282;28;20020;-68
2021/12/15 02:28:31;;;;;;;70.43;29.35;;;;;;;7.75;100.00;102741.56;2106425;28;20501;-68
2021/12/15 02:29:37;;;;;;;62.83;28.87;;;;;;;7.75;100.00;102734.63;2106411;28;20030;-69
2021/12/15 02:30:54;;;;;;;66.20;28.23;;;;;;;7.75;100.00;102732.03;2097380;28;20115;-68
2021/12/15 02:32:00;;;;;;;66.38;27.27;;;;;;;7.74;100.00;102730.31;2099839;28;20071;-69
2021/12/15 02:37:47;;;;;;;58.72;26.15;;;;;;;7.77;100.00;102729.44;2106428;28;20012;-68
2021/12/15 02:38:48;;;;;;;63.33;29.67;;;;;;;7.77;100.00;102734.63;2106472;28;20416;-69
2021/12/15 02:40:00;;;;;;;62.42;26.27;;;;;;;7.77;100.00;102732.03;2106379;28;20024;-70
2021/12/15 02:41:07;;;;;;;;;;;;;;;7.78;100.00;102737.25;2106727;28;20024;-69
2021/12/15 02:42:08;;;;;;;61.92;24.98;;;;;;;7.77;100.00;102732.88;2105550;28;19951;-67
2021/12/15 02:43:08;;;;;;;57.47;27.90;;;;;;;7.78;100.00;102733.75;2105672;28;20040;-69
2021/12/15 02:44:16;;;;;;;67.80;27.80;;;;;;;7.78;100.00;102731.16;2106484;28;20388;-69
2021/12/15 02:45:19;;;;;;;62.88;26.90;;;;;;;7.77;100.00;102732.03;2106258;28;20133;-68
2021/12/15 02:46:21;;;;;;;72.32;29.88;;;;;;;7.77;100.00;102732.88;2106246;28;20039;-67
2021/12/15 02:47:23;;;;;;;;;;;;;;;7.78;100.00;102731.16;2106633;28;20060;-67
2021/12/15 02:48:24;;;;;;;65.53;26.17;;;;;;;7.77;100.00;102730.28;2106181;28;19908;-67
2021/12/15 02:49:27;;;;;;;65.07;24.20;;;;;;;7.78;100.00;102720.75;2097201;28;20043;-67
2021/12/15 02:50:29;;;;;;;64.43;25.63;;;;;;;7.78;100.00;102731.16;2097731;28;20017;-68
2021/12/15 02:51:30;;;;;;;63.00;28.23;;;;;;;7.78;100.00;102728.56;2097257;28;20040;-66
2021/12/15 02:52:31;;;;;;;58.13;25.13;;;;;;;7.78;100.00;102732.03;2097367;28;20033;-68
2021/12/15 02:53:32;;;;;;;67.13;29.23;;;;;;;7.77;100.00;102730.28;2106258;28;20035;-67
2021/12/15 02:54:32;;;;;;;61.47;28.42;;;;;;;7.78;100.00;102736.34;2106326;28;20061;-68
2021/12/15 02:55:33;;;;;;;67.40;28.50;;;;;;;7.78;100.00;102731.16;2106264;28;20095;-70
2021/12/15 02:56:35;;;;;;;66.07;27.05;;;;;;;7.78;100.00;102731.16;2106241;28;20827;-68
2021/12/15 02:57:35;;;;;;;66.03;27.17;;;;;;;7.77;100.00;102727.69;2106280;28;20118;-68
2021/12/15 02:58:38;;;;;;;65.95;27.80;;;;;;;7.79;100.00;102727.69;2097191;28;20025;-68
2021/12/15 03:00:16;;;;;;;61.17;26.02;;;;;;;7.79;100.00;102727.69;2089053;28;20017;-68
2021/12/15 03:01:25;;;;;;;65.75;28.77;;;;;;;7.79;100.00;102732.88;2100462;28;20036;-69
2021/12/15 03:06:07;;;;;;;56.63;25.63;;;;;;;7.80;100.00;102729.44;2107882;28;20027;-68
2021/12/15 03:07:09;;;;;;;67.35;28.23;;;;;;;7.81;100.00;102731.16;2107219;28;20035;-67
2021/12/15 03:08:18;;;;;;;62.95;27.13;;;;;;;7.81;100.00;102728.56;2107622;28;20050;-68
2021/12/15 03:15:49;;;;;;;66.75;26.83;;;;;;;7.83;100.00;102734.63;2107664;28;20055;-68
2021/12/15 03:16:50;;;;;;;66.07;27.85;;;;;;;7.81;100.00;102725.97;2107669;28;20423;-69
2021/12/15 03:18:08;;;;;;;63.10;26.77;;;;;;;7.81;100.00;102723.38;2107638;28;20012;-68
2021/12/15 03:19:08;;;;;;;63.90;27.48;;;;;;;7.81;100.00;102721.66;2107612;28;20073;-67
2021/12/15 03:20:11;;;;;;;59.55;26.55;;;;;;;7.80;100.00;102719.91;2107607;28;20101;-69
2021/12/15 03:21:23;;;;;;;65.15;26.38;;;;;;;7.81;100.00;102725.97;2107670;28;20032;-69
2021/12/15 03:22:24;;;;;;;63.00;26.52;;;;;;;7.81;100.00;102731.16;2107595;28;20050;-68
2021/12/15 03:23:31;;;;;;;68.27;27.53;;;;;;;7.81;100.00;102723.38;2107524;28;20028;-68
2021/12/15 03:24:31;;;;;;;63.53;28.67;;;;;;;7.80;100.00;102719.91;2107507;28;20542;-68
2021/12/15 03:25:31;;;;;;;62.83;27.17;;;;;;;7.81;100.00;102726.84;2107430;28;20101;-69
2021/12/15 03:26:39;;;;;;;64.35;26.98;;;;;;;7.82;100.00;102725.09;2107514;28;20036;-70
2021/12/15 03:35:46;;;;;;;59.35;25.27;;;;;;;7.82;100.00;102714.69;2107663;28;20081;-68
2021/12/15 03:37:56;;;;;;;57.40;23.23;;;;;;;7.82;100.00;102718.16;2107509;28;20101;-68
2021/12/15 03:38:57;;;;;;;60.65;25.33;;;;;;;7.83;100.00;102719.03;2107523;28;20077;-68
2021/12/15 03:40:08;;;;;;;54.23;23.73;;;;;;;7.84;100.00;102715.56;2107586;28;20020;-69
2021/12/15 03:41:10;;;;;;;58.20;24.63;;;;;;;7.84;100.00;102725.97;2107454;28;20024;-68
2021/12/15 03:42:17;;;;;;;60.17;25.27;;;;;;;7.84;100.00;102733.78;2107526;28;20153;-68
2021/12/15 03:43:17;;;;;;;58.15;24.35;;;;;;;7.84;100.00;102733.78;2107512;28;20493;-68
2021/12/15 03:44:18;;;;;;;61.70;25.95;;;;;;;7.84;100.00;102725.97;2107564;28;20077;-68
2021/12/15 03:45:41;;;;;;;58.58;25.35;;;;;;;7.85;100.00;102728.56;2107478;28;20024;-67
2021/12/15 03:46:42;;;;;;;60.72;23.48;;;;;;;7.86;100.00;102729.41;2106613;28;20507;-70
2021/12/15 03:47:46;;;;;;;63.35;25.75;;;;;;;7.86;100.00;102735.50;2107376;28;20064;-67
2021/12/15 03:48:46;;;;;;;60.33;24.80;;;;;;;7.86;100.00;102734.63;2107272;28;20051;-68
2021/12/15 03:49:47;;;;;;;57.92;24.95;;;;;;;7.86;100.00;102734.63;2107499;28;20469;-68
2021/12/15 03:50:48;;;;;;;60.60;24.87;;;;;;;7.85;100.00;102738.97;2098357;28;20073;-67
2021/12/15 03:51:48;;;;;;;58.05;26.23;;;;;;;7.86;100.00;102739.81;2098442;28;20293;-67
2021/12/15 03:52:49;;;;;;;60.53;25.23;;;;;;;7.86;100.00;102732.03;2107421;28;20023;-68
2021/12/15 03:53:50;;;;;;;57.70;24.20;;;;;;;7.88;100.00;102732.91;2107369;28;20032;-68
2021/12/15 03:54:51;;;;;;;56.75;24.70;;;;;;;7.88;100.00;102732.91;2107352;28;20031;-68
2021/12/15 03:55:53;;;;;;;54.53;24.52;;;;;;;7.89;100.00;102738.94;2107400;28;20043;-68
2021/12/15 03:56:54;;;;;;;52.22;22.95;;;;;;;7.88;100.00;102738.09;2107365;28;20051;-68
2021/12/15 03:57:57;;;;;;;63.53;26.02;;;;;;;7.89;100.00;102736.34;2107276;28;20499;-70
2021/12/15 03:58:57;;;;;;;54.97;25.45;;;;;;;7.89;100.00;102732.03;2107283;28;20035;-68
2021/12/15 03:59:58;;;;;;;51.47;24.37;;;;;;;7.88;100.00;102732.03;2107335;28;20476;-70
2021/12/15 04:01:04;;;;;;;47.13;23.27;;;;;;;7.89;100.00;102738.94;2107297;28;20028;-68
2021/12/15 04:02:04;;;;;;;55.60;23.05;;;;;;;7.88;100.00;102743.31;2107282;28;20365;-68
2021/12/15 04:03:05;;;;;;;53.47;23.90;;;;;;;7.89;100.00;102745.03;2107336;28;20032;-68
2021/12/15 04:04:09;;;;;;;56.45;23.27;;;;;;;7.90;100.00;102741.53;2098240;28;20070;-68
2021/12/15 04:05:11;;;;;;;54.03;23.98;;;;;;;7.89;100.00;102745.03;2098648;28;20055;-70
2021/12/15 04:06:17;;;;;;;52.15;22.88;;;;;;;7.91;100.00;102745.91;2107206;28;20485;-68
2021/12/15 04:07:21;;;;;;;50.50;21.65;;;;;;;7.91;100.00;102743.31;2098209;28;20020;-67
2021/12/15 04:08:22;;;;;;;54.80;23.30;;;;;;;7.92;100.00;102746.75;2098777;28;20024;-68
2021/12/15 04:09:22;;;;;;;53.55;23.35;;;;;;;7.92;100.00;102739.81;2107195;28;20503;-68
2021/12/15 04:10:25;;;;;;;57.10;24.27;;;;;;;7.91;100.00;102735.50;2107233;28;20440;-68
2021/12/15 04:11:28;;;;;;;52.90;23.50;;;;;;;7.90;100.00;102741.53;2107030;28;20396;-67
2021/12/15 04:12:28;;;;;;;51.28;22.17;;;;;;;7.91;100.00;102737.22;2107244;28;20031;-68
2021/12/15 04:13:29;;;;;;;48.03;21.70;;;;;;;7.92;100.00;102738.94;2106859;28;20035;-69
2021/12/15 04:14:34;;;;;;;53.40;22.93;;;;;;;7.93;100.00;102741.56;2107147;28;20040;-70
2021/12/15 04:15:43;;;;;;;48.78;20.80;;;;;;;7.92;100.00;102742.44;2107220;28;20024;-69
2021/12/15 04:16:57;;;;;;;53.17;22.95;;;;;;;7.91;100.00;102738.09;2107239;28;20030;-68
2021/12/15 04:18:00;;;;;;;53.58;23.02;;;;;;;7.92;100.00;102739.81;2107149;28;20060;-68
2021/12/15 04:19:04;;;;;;;49.80;24.45;;;;;;;7.91;100.00;102740.69;2107197;28;20077;-69
2021/12/15 04:20:12;;;;;;;52.97;24.52;;;;;;;7.92;100.00;102739.81;2106901;28;20028;-69
2021/12/15 04:21:12;;;;;;;47.65;21.90;;;;;;;7.91;100.00;102738.09;2107176;28;20042;-68
2021/12/15 04:22:12;;;;;;;52.23;24.83;;;;;;;7.91;100.00;102738.09;2098000;28;20134;-67
2021/12/15 04:23:19;;;;;;;49.83;23.90;;;;;;;7.91;100.00;102737.22;2098254;28;20169;-68
2021/12/15 04:24:19;;;;;;;56.10;24.17;;;;;;;7.92;100.00;102738.94;2107062;28;20095;-68
2021/12/15 04:25:30;;;;;;;53.35;24.70;;;;;;;7.91;100.00;102743.31;2106907;28;20027;-68
2021/12/15 04:26:30;;;;;;;52.28;22.63;;;;;;;7.90;100.00;102736.34;2107089;28;20024;-69
2021/12/15 04:27:31;;;;;;;46.13;22.80;;;;;;;7.91;100.00;102745.91;2107078;28;20034;-68
2021/12/15 04:28:34;;;;;;;48.47;21.13;;;;;;;7.91;100.00;102748.50;2107067;28;20469;-68
2021/12/15 04:29:35;;;;;;;54.40;22.75;;;;;;;7.90;100.00;102751.94;2106993;28;20396;-69
2021/12/15 04:30:38;;;;;;;48.03;21.10;;;;;;;7.91;100.00;102751.09;2098038;28;20020;-68
2021/12/15 04:31:55;;;;;;;46.25;21.40;;;;;;;7.90;100.00;102751.94;2098445;28;20092;-69
2021/12/15 04:33:00;;;;;;;54.40;22.23;;;;;;;7.91;100.00;102758.91;2107088;28;20115;-71
2021/12/15 04:34:08;;;;;;;52.92;23.83;;;;;;;7.90;100.00;102745.91;2107002;28;20397;-69
2021/12/15 04:35:10;;;;;;;49.70;22.13;;;;;;;7.91;100.00;102753.72;2106978;28;20020;-68
2021/12/15 04:36:12;;;;;;;54.15;22.05;;;;;;;7.91;100.00;102745.91;2107018;28;20473;-69
2021/12/15 04:37:13;;;;;;;50.67;22.30;;;;;;;7.90;100.00;102751.94;2106886;28;20024;-67
2021/12/15 04:38:14;;;;;;;49.65;22.92;;;;;;;7.91;100.00;102752.81;2097910;28;20079;-67
2021/12/15 04:39:17;;;;;;;45.55;22.48;;;;;;;7.90;100.00;102757.16;2098065;28;20048;-67
2021/12/15 04:40:20;;;;;;;53.67;23.38;;;;;;;7.90;100.00;102757.16;2106394;28;20023;-68
2021/12/15 04:41:21;;;;;;;50.10;23.20;;;;;;;7.91;100.00;102756.31;2106277;28;20036;-68
2021/12/15 04:42:23;;;;;;;48.77;23.33;;;;;;;7.90;100.00;102762.34;2107011;28;20016;-68
2021/12/15 04:43:24;;;;;;;51.08;22.23;;;;;;;7.90;100.00;102757.16;2106953;28;20039;-68
2021/12/15 04:44:33;;;;;;;50.10;22.40;;;;;;;7.90;100.00;102757.16;2106970;28;20035;-69
2021/12/15 04:45:34;;;;;;;47.50;21.38;;;;;;;7.89;100.00;102755.41;2106955;28;20362;-69
2021/12/15 04:46:37;;;;;;;48.17;21.48;;;;;;;7.90;100.00;102754.53;2106943;28;20026;-70
2021/12/15 04:47:38;;;;;;;43.25;20.83;;;;;;;7.90;100.00;102756.31;2106903;28;20025;-68
2021/12/15 04:48:41;;;;;;;50.47;24.38;;;;;;;7.90;100.00;102756.31;2107005;28;20028;-69
2021/12/15 04:49:50;;;;;;;53.08;22.50;;;;;;;7.90;100.00;102761.50;2106861;28;20028;-68
2021/12/15 04:50:50;;;;;;;55.45;23.02;;;;;;;7.90;100.00;102759.75;2106942;28;20097;-69
2021/12/15 04:51:50;;;;;;;47.77;21.40;;;;;;;7.89;100.00;102758.03;2106986;28;20066;-68
2021/12/15 04:52:52;;;;;;;48.80;21.60;;;;;;;7.89;100.00;102764.94;2106949;28;20444;-69
2021/12/15 04:53:53;;;;;;;49.65;21.25;;;;;;;7.88;100.00;102764.09;2106983;28;20419;-68
2021/12/15 04:54:54;;;;;;;45.85;21.48;;;;;;;7.88;100.00;102765.81;2106883;28;20028;-69
2021/12/15 04:55:54;;;;;;;51.20;23.40;;;;;;;7.88;100.00;102764.09;2106855;28;20400;-70
2021/12/15 04:56:55;;;;;;;52.37;22.13;;;;;;;7.88;100.00;102768.41;2106877;28;20032;-69
2021/12/15 04:57:58;;;;;;;41.87;20.27;;;;;;;7.88;100.00;102758.91;2106822;28;20032;-69
2021/12/15 04:58:58;;;;;;;47.30;21.70;;;;;;;7.88;100.00;102764.09;2106797;28;20754;-69
2021/12/15 04:59:58;;;;;;;45.87;21.07;;;;;;;7.88;100.00;102761.50;2106886;28;20060;-69
2021/12/15 05:01:01;;;;;;;49.27;22.17;;;;;;;7.88;100.00;102764.09;2106887;28;20031;-68
2021/12/15 05:02:02;;;;;;;43.47;18.65;;;;;;;7.89;100.00;102764.94;2106604;28;20028;-69
2021/12/15 05:03:04;;;;;;;46.67;22.58;;;;;;;7.89;100.00;102771.03;2097829;28;20024;-68
2021/12/15 05:04:05;;;;;;;43.35;21.10;;;;;;;7.89;100.00;102764.94;2097827;28;20024;-68
2021/12/15 05:05:08;;;;;;;46.03;20.35;;;;;;;7.88;100.00;102766.69;2106791;28;20095;-67
2021/12/15 05:06:10;;;;;;;47.00;21.35;;;;;;;7.87;100.00;102767.53;2106736;28;20027;-68
2021/12/15 05:07:11;;;;;;;48.05;21.52;;;;;;;7.88;100.00;102766.69;2097729;28;20047;-67
2021/12/15 05:08:12;;;;;;;44.38;20.00;;;;;;;7.89;100.00;102770.13;2089342;28;20417;-70
2021/12/15 05:09:14;;;;;;;44.10;21.35;;;;;;;7.89;100.00;102770.13;2097776;28;20027;-68
2021/12/15 05:10:14;;;;;;;46.50;21.67;;;;;;;7.87;100.00;102772.75;2106724;28;20415;-67
2021/12/15 05:11:14;;;;;;;49.80;21.90;;;;;;;7.88;100.00;102774.50;2106822;28;20032;-68
2021/12/15 05:12:15;;;;;;;42.63;20.03;;;;;;;7.88;100.00;102779.69;2106729;28;20028;-67
2021/12/15 05:13:16;;;;;;;42.07;19.00;;;;;;;7.87;100.00;102770.13;2106702;28;20032;-68
2021/12/15 05:14:21;;;;;;;45.83;20.70;;;;;;;7.86;100.00;102771.88;2106577;28;20284;-69
2021/12/15 05:15:21;;;;;;;44.15;20.98;;;;;;;7.88;100.00;102771.00;2106724;28;20028;-69
2021/12/15 05:16:22;;;;;;;48.33;21.57;;;;;;;7.88;100.00;102771.00;2106763;28;20337;-67
2021/12/15 05:17:22;;;;;;;49.40;21.85;;;;;;;7.87;100.00;102772.75;2097596;28;20024;-67
2021/12/15 05:18:23;;;;;;;44.38;21.48;;;;;;;7.87;100.00;102770.13;2097621;28;20020;-69
2021/12/15 05:19:26;;;;;;;39.30;20.03;;;;;;;7.87;100.00;102780.53;2106075;28;20016;-68
2021/12/15 05:20:27;;;;;;;42.63;21.00;;;;;;;7.86;100.00;102771.88;2105955;28;20031;-67
2021/12/15 05:21:29;;;;;;;42.35;20.58;;;;;;;7.87;100.00;102770.13;2106094;28;20032;-67